createdAt,value
2023-04-23T00:00:38.257Z,15.33
2023-04-23T00:01:38.268Z,15.29
2023-04-23T00:02:38.408Z,15.25
2023-04-23T00:03:38.397Z,15.24
2023-04-23T00:04:38.477Z,15.19
2023-04-23T00:05:38.185Z,15.22
2023-04-23T00:06:38.176Z,15.10
2023-04-23T00:07:38.169Z,15.15
2023-04-23T00:08:38.180Z,15.18
2023-04-23T00:09:38.192Z,15.14
2023-04-23T00:10:38.166Z,15.15
2023-04-23T00:11:38.160Z,15.11
2023-04-23T00:12:38.151Z,15.04
2023-04-23T00:13:38.144Z,15.11
2023-04-23T00:14:38.111Z,15.15
2023-04-23T00:15:38.152Z,15.10
2023-04-23T00:16:38.534Z,15.04
2023-04-23T00:17:38.128Z,15.15
2023-04-23T00:18:38.303Z,15.07
2023-04-23T00:19:38.117Z,15.04
2023-04-23T00:20:38.076Z,15.09
2023-04-23T00:21:38.069Z,15.02
2023-04-23T00:22:38.078Z,15.10
2023-04-23T00:23:38.058Z,15.04
2023-04-23T00:24:38.271Z,15.06
2023-04-23T00:25:38.071Z,15.10
2023-04-23T00:26:38.075Z,15.15
2023-04-23T00:27:38.068Z,15.10
2023-04-23T00:28:38.075Z,15.06
2023-04-23T00:29:38.021Z,15.10
2023-04-23T00:30:38.022Z,15.17
2023-04-23T00:31:38.105Z,15.04
2023-04-23T00:32:38.072Z,15.00
2023-04-23T00:33:38.064Z,15.09
2023-04-23T00:34:37.973Z,15.04
2023-04-23T00:35:37.983Z,15.06
2023-04-23T00:36:37.986Z,15.07
2023-04-23T00:37:38.001Z,15.03
2023-04-23T00:38:38.064Z,15.03
2023-04-23T00:39:37.953Z,15.07
2023-04-23T00:40:37.988Z,15.02
2023-04-23T00:41:37.934Z,15.00
2023-04-23T00:42:37.948Z,15.00
2023-04-23T00:43:37.943Z,14.92
2023-04-23T00:44:37.981Z,14.91
2023-04-23T00:45:37.940Z,14.89
2023-04-23T00:46:37.914Z,14.85
2023-04-23T00:47:37.948Z,14.91
2023-04-23T00:48:37.886Z,14.94
2023-04-23T00:49:37.929Z,14.94
2023-04-23T00:50:37.852Z,14.89
2023-04-23T00:51:37.868Z,14.81
2023-04-23T00:52:37.866Z,14.86
2023-04-23T00:53:37.858Z,14.85
2023-04-23T00:54:37.871Z,14.92
2023-04-23T00:55:37.834Z,14.92
2023-04-23T00:56:37.870Z,14.85
2023-04-23T00:57:37.844Z,14.86
2023-04-23T00:58:37.852Z,14.91
2023-04-23T00:59:38.028Z,14.91
2023-04-23T01:00:37.794Z,14.92
2023-04-23T01:01:37.890Z,14.88
2023-04-23T01:02:37.937Z,14.91
2023-04-23T01:03:37.911Z,14.89
2023-04-23T01:04:37.834Z,14.81
2023-04-23T01:05:37.789Z,14.82
2023-04-23T01:06:37.736Z,14.86
2023-04-23T01:07:37.751Z,14.77
2023-04-23T01:08:37.808Z,14.72
2023-04-23T01:09:37.744Z,14.68
2023-04-23T01:10:37.804Z,14.69
2023-04-23T01:11:37.718Z,14.68
2023-04-23T01:12:37.760Z,14.68
2023-04-23T01:13:37.791Z,14.73
2023-04-23T01:14:37.698Z,14.66
2023-04-23T01:15:37.780Z,14.72
2023-04-23T01:16:37.718Z,14.68
2023-04-23T01:17:37.743Z,14.60
2023-04-23T01:18:37.673Z,14.62
2023-04-23T01:19:37.661Z,14.60
2023-04-23T01:20:37.910Z,14.60
2023-04-23T01:21:37.703Z,14.55
2023-04-23T01:22:37.730Z,14.58
2023-04-23T01:23:37.666Z,14.55
2023-04-23T01:24:37.682Z,14.55
2023-04-23T01:25:37.645Z,14.58
2023-04-23T01:26:37.600Z,14.65
2023-04-23T01:27:37.578Z,14.60
2023-04-23T01:28:37.591Z,14.55
2023-04-23T01:29:37.594Z,14.60
2023-04-23T01:30:37.721Z,14.58
2023-04-23T01:31:37.655Z,14.55
2023-04-23T01:32:37.623Z,14.60
2023-04-23T01:33:37.545Z,14.59
2023-04-23T01:34:37.590Z,14.55
2023-04-23T01:35:37.534Z,14.48
2023-04-23T01:36:37.565Z,14.53
2023-04-23T01:37:37.534Z,14.45
2023-04-23T01:38:37.526Z,14.53
2023-04-23T01:39:37.504Z,14.55
2023-04-23T01:40:37.480Z,14.50
2023-04-23T01:41:37.474Z,14.54
2023-04-23T01:42:37.479Z,14.48
2023-04-23T01:43:37.499Z,14.55
2023-04-23T01:44:37.473Z,14.50
2023-04-23T01:45:37.445Z,14.43
2023-04-23T01:46:37.509Z,14.58
2023-04-23T01:47:37.497Z,14.53
2023-04-23T01:48:37.453Z,14.51
2023-04-23T01:49:37.440Z,14.54
2023-04-23T01:50:37.416Z,14.51
2023-04-23T01:51:37.420Z,14.62
2023-04-23T01:52:37.458Z,14.47
2023-04-23T01:53:37.422Z,14.47
2023-04-23T01:54:37.390Z,14.53
2023-04-23T01:55:37.397Z,14.45
2023-04-23T01:56:37.425Z,14.50
2023-04-23T01:57:37.427Z,14.53
2023-04-23T01:58:37.381Z,14.48
2023-04-23T01:59:37.386Z,14.59
2023-04-23T02:00:37.328Z,14.51
2023-04-23T02:01:37.401Z,14.53
2023-04-23T02:02:37.413Z,14.48
2023-04-23T02:03:37.515Z,14.51
2023-04-23T02:04:37.476Z,14.45
2023-04-23T02:05:37.326Z,14.54
2023-04-23T02:06:37.321Z,14.47
2023-04-23T02:07:37.432Z,14.47
2023-04-23T02:08:37.367Z,14.47
2023-04-23T02:09:37.282Z,14.47
2023-04-23T02:10:37.303Z,14.45
2023-04-23T02:11:37.299Z,14.43
2023-04-23T02:12:37.280Z,14.43
2023-04-23T02:13:37.259Z,14.44
2023-04-23T02:14:37.235Z,14.45
2023-04-23T02:15:37.230Z,14.48
2023-04-23T02:16:37.215Z,14.50
2023-04-23T02:17:37.226Z,14.45
2023-04-23T02:18:37.241Z,14.50
2023-04-23T02:19:37.234Z,14.47
2023-04-23T02:20:37.240Z,14.45
2023-04-23T02:21:37.175Z,14.47
2023-04-23T02:22:37.188Z,14.47
2023-04-23T02:23:37.248Z,14.53
2023-04-23T02:24:37.188Z,14.47
2023-04-23T02:25:37.202Z,14.51
2023-04-23T02:26:37.164Z,14.44
2023-04-23T02:27:37.130Z,14.50
2023-04-23T02:28:37.346Z,14.48
2023-04-23T02:29:37.128Z,14.43
2023-04-23T02:30:37.144Z,14.44
2023-04-23T02:31:37.166Z,14.44
2023-04-23T02:32:37.153Z,14.41
2023-04-23T02:33:37.121Z,14.44
2023-04-23T02:34:37.085Z,14.40
2023-04-23T02:35:37.198Z,14.44
2023-04-23T02:36:37.061Z,14.44
2023-04-23T02:37:37.086Z,14.48
2023-04-23T02:38:37.075Z,14.47
2023-04-23T02:39:37.045Z,14.48
2023-04-23T02:40:37.089Z,14.48
2023-04-23T02:41:37.034Z,14.58
2023-04-23T02:42:37.065Z,14.53
2023-04-23T02:43:37.086Z,14.48
2023-04-23T02:44:37.029Z,14.47
2023-04-23T02:45:37.027Z,14.53
2023-04-23T02:46:37.035Z,14.58
2023-04-23T02:47:37.080Z,14.51
2023-04-23T02:48:37.017Z,14.47
2023-04-23T02:49:37.019Z,14.47
2023-04-23T02:50:36.965Z,14.59
2023-04-23T02:51:36.980Z,14.47
2023-04-23T02:52:36.968Z,14.47
2023-04-23T02:53:37.014Z,14.47
2023-04-23T02:54:36.951Z,14.45
2023-04-23T02:55:36.974Z,14.47
2023-04-23T02:56:36.948Z,14.47
2023-04-23T02:57:36.904Z,14.43
2023-04-23T02:58:36.909Z,14.43
2023-04-23T02:59:36.885Z,14.40
2023-04-23T03:00:36.925Z,14.41
2023-04-23T03:01:36.856Z,14.41
2023-04-23T03:02:37.019Z,14.43
2023-04-23T03:03:37.005Z,14.30
2023-04-23T03:04:36.839Z,14.25
2023-04-23T03:05:36.830Z,14.35
2023-04-23T03:06:36.827Z,14.33
2023-04-23T03:07:37.039Z,14.23
2023-04-23T03:08:36.848Z,14.26
2023-04-23T03:09:36.805Z,14.26
2023-04-23T03:10:36.830Z,14.33
2023-04-23T03:11:36.819Z,14.32
2023-04-23T03:12:36.821Z,14.33
2023-04-23T03:13:36.784Z,14.29
2023-04-23T03:14:36.962Z,14.32
2023-04-23T03:15:36.780Z,14.30
2023-04-23T03:16:36.805Z,14.32
2023-04-23T03:17:36.838Z,14.32
2023-04-23T03:18:36.755Z,14.28
2023-04-23T03:19:36.726Z,14.37
2023-04-23T03:20:36.713Z,14.29
2023-04-23T03:21:36.751Z,14.33
2023-04-23T03:22:36.695Z,14.25
2023-04-23T03:23:36.711Z,14.30
2023-04-23T03:24:36.709Z,14.28
2023-04-23T03:25:36.687Z,14.33
2023-04-23T03:26:36.680Z,14.25
2023-04-23T03:27:39.046Z,14.30
2023-04-23T03:28:36.726Z,14.25
2023-04-23T03:29:36.708Z,14.28
2023-04-23T03:30:36.692Z,14.28
2023-04-23T03:31:36.653Z,14.23
2023-04-23T03:32:36.670Z,14.30
2023-04-23T03:33:36.618Z,14.28
2023-04-23T03:34:36.629Z,14.23
2023-04-23T03:35:36.632Z,14.26
2023-04-23T03:36:36.614Z,14.23
2023-04-23T03:37:36.636Z,14.28
2023-04-23T03:38:36.624Z,14.25
2023-04-23T03:39:36.600Z,14.30
2023-04-23T03:40:36.572Z,14.28
2023-04-23T03:41:36.568Z,14.17
2023-04-23T03:42:36.805Z,14.14
2023-04-23T03:43:36.573Z,14.18
2023-04-23T03:44:36.562Z,14.17
2023-04-23T03:45:36.543Z,14.18
2023-04-23T03:46:36.622Z,14.26
2023-04-23T03:47:36.567Z,14.28
2023-04-23T03:48:36.529Z,14.29
2023-04-23T03:49:36.483Z,14.25
2023-04-23T03:50:36.478Z,14.28
2023-04-23T03:51:36.497Z,14.18
2023-04-23T03:52:36.477Z,14.26
2023-04-23T03:53:36.475Z,14.23
2023-04-23T03:54:36.468Z,14.26
2023-04-23T03:55:36.454Z,14.25
2023-04-23T03:56:36.651Z,14.28
2023-04-23T03:57:36.439Z,14.23
2023-04-23T03:58:36.427Z,14.18
2023-04-23T03:59:36.410Z,14.17
2023-04-23T04:00:36.456Z,14.15
2023-04-23T04:01:36.438Z,14.12
2023-04-23T04:02:36.486Z,14.18
2023-04-23T04:03:36.601Z,14.12
2023-04-23T04:04:36.609Z,14.11
2023-04-23T04:05:36.448Z,14.23
2023-04-23T04:06:36.358Z,14.15
2023-04-23T04:07:36.350Z,14.08
2023-04-23T04:08:36.347Z,14.05
2023-04-23T04:09:36.347Z,14.14
2023-04-23T04:10:36.338Z,14.12
2023-04-23T04:11:36.344Z,14.14
2023-04-23T04:12:36.329Z,14.14
2023-04-23T04:13:36.323Z,14.14
2023-04-23T04:14:36.299Z,14.14
2023-04-23T04:15:36.303Z,14.17
2023-04-23T04:16:36.370Z,14.10
2023-04-23T04:17:36.330Z,14.14
2023-04-23T04:18:36.273Z,14.15
2023-04-23T04:19:36.272Z,14.15
2023-04-23T04:20:36.257Z,14.14
2023-04-23T04:21:36.283Z,14.15
2023-04-23T04:22:36.248Z,14.18
2023-04-23T04:23:36.233Z,14.12
2023-04-23T04:24:36.239Z,14.18
2023-04-23T04:25:36.217Z,14.17
2023-04-23T04:26:36.449Z,14.20
2023-04-23T04:27:36.202Z,14.14
2023-04-23T04:28:36.212Z,14.14
2023-04-23T04:29:36.204Z,14.20
2023-04-23T04:30:36.163Z,14.17
2023-04-23T04:31:36.192Z,14.12
2023-04-23T04:32:36.410Z,14.11
2023-04-23T04:33:36.202Z,14.11
2023-04-23T04:34:36.373Z,14.17
2023-04-23T04:35:36.147Z,14.15
2023-04-23T04:36:36.106Z,14.15
2023-04-23T04:37:36.114Z,14.12
2023-04-23T04:38:36.089Z,14.20
2023-04-23T04:39:36.101Z,14.20
2023-04-23T04:40:36.127Z,14.14
2023-04-23T04:41:36.079Z,14.11
2023-04-23T04:42:36.105Z,14.11
2023-04-23T04:43:36.089Z,14.14
2023-04-23T04:44:36.057Z,14.17
2023-04-23T04:45:36.058Z,14.26
2023-04-23T04:46:36.071Z,14.28
2023-04-23T04:47:36.104Z,14.26
2023-04-23T04:48:36.066Z,14.28
2023-04-23T04:49:36.063Z,14.25
2023-04-23T04:50:36.051Z,14.26
2023-04-23T04:51:36.025Z,14.43
2023-04-23T04:52:36.027Z,14.45
2023-04-23T04:53:36.072Z,14.43
2023-04-23T04:54:36.005Z,14.40
2023-04-23T04:55:35.974Z,14.37
2023-04-23T04:56:35.955Z,14.41
2023-04-23T04:57:35.975Z,14.45
2023-04-23T04:58:35.947Z,14.43
2023-04-23T04:59:35.949Z,14.47
2023-04-23T05:00:35.946Z,14.50
2023-04-23T05:01:36.000Z,14.55
2023-04-23T05:02:36.026Z,14.54
2023-04-23T05:03:36.019Z,14.54
2023-04-23T05:04:35.967Z,14.53
2023-04-23T05:05:35.902Z,14.60
2023-04-23T05:06:35.919Z,14.58
2023-04-23T05:07:35.859Z,14.58
2023-04-23T05:08:36.051Z,14.51
2023-04-23T05:09:35.850Z,14.59
2023-04-23T05:10:36.037Z,14.50
2023-04-23T05:11:35.841Z,14.60
2023-04-23T05:12:35.831Z,14.54
2023-04-23T05:13:35.823Z,14.55
2023-04-23T05:14:35.853Z,14.62
2023-04-23T05:15:35.806Z,14.66
2023-04-23T05:16:35.860Z,14.60
2023-04-23T05:17:35.851Z,14.62
2023-04-23T05:18:35.786Z,14.62
2023-04-23T05:19:35.789Z,14.70
2023-04-23T05:20:35.813Z,14.58
2023-04-23T05:21:35.807Z,14.58
2023-04-23T05:22:35.774Z,14.65
2023-04-23T05:23:35.752Z,14.65
2023-04-23T05:24:35.751Z,14.58
2023-04-23T05:25:35.795Z,14.68
2023-04-23T05:26:35.759Z,14.65
2023-04-23T05:27:35.725Z,14.55
2023-04-23T05:28:35.706Z,14.72
2023-04-23T05:29:35.731Z,14.54
2023-04-23T05:30:35.705Z,14.66
2023-04-23T05:31:35.729Z,14.62
2023-04-23T05:32:35.753Z,14.54
2023-04-23T05:33:42.895Z,14.66
2023-04-23T05:34:35.669Z,14.63
2023-04-23T05:35:35.652Z,14.60
2023-04-23T05:36:35.694Z,14.65
2023-04-23T05:37:35.679Z,14.72
2023-04-23T05:38:35.663Z,14.72
2023-04-23T05:39:35.638Z,14.77
2023-04-23T05:40:35.623Z,14.68
2023-04-23T05:41:35.646Z,14.72
2023-04-23T05:42:35.646Z,14.69
2023-04-23T05:43:35.702Z,14.79
2023-04-23T05:44:35.594Z,14.81
2023-04-23T05:45:35.562Z,14.91
2023-04-23T05:46:35.582Z,14.86
2023-04-23T05:47:35.617Z,14.81
2023-04-23T05:48:35.582Z,14.85
2023-04-23T05:49:35.564Z,14.89
2023-04-23T05:50:35.521Z,14.91
2023-04-23T05:51:35.581Z,14.89
2023-04-23T05:52:35.555Z,14.91
2023-04-23T05:53:35.568Z,14.89
2023-04-23T05:54:35.513Z,14.94
2023-04-23T05:55:35.526Z,14.89
2023-04-23T05:56:35.520Z,14.96
2023-04-23T05:57:35.508Z,15.03
2023-04-23T05:58:35.518Z,14.99
2023-04-23T05:59:35.517Z,14.99
2023-04-23T06:00:35.533Z,15.02
2023-04-23T06:01:35.454Z,15.02
2023-04-23T06:02:35.577Z,15.03
2023-04-23T06:03:35.575Z,15.10
2023-04-23T06:04:35.965Z,15.10
2023-04-23T06:05:35.465Z,15.11
2023-04-23T06:06:35.430Z,15.24
2023-04-23T06:07:35.426Z,15.17
2023-04-23T06:08:35.565Z,15.24
2023-04-23T06:09:35.387Z,15.27
2023-04-23T06:10:35.362Z,15.22
2023-04-23T06:11:35.393Z,15.24
2023-04-23T06:12:35.374Z,15.25
2023-04-23T06:13:35.358Z,15.22
2023-04-23T06:14:35.566Z,15.31
2023-04-23T06:15:35.331Z,15.33
2023-04-23T06:16:35.372Z,15.35
2023-04-23T06:17:35.401Z,15.28
2023-04-23T06:18:35.340Z,15.33
2023-04-23T06:19:35.350Z,15.31
2023-04-23T06:20:35.355Z,15.37
2023-04-23T06:21:35.322Z,15.25
2023-04-23T06:22:35.283Z,15.33
2023-04-23T06:23:35.296Z,15.36
2023-04-23T06:24:35.322Z,15.40
2023-04-23T06:25:35.272Z,15.43
2023-04-23T06:26:35.294Z,15.44
2023-04-23T06:27:35.239Z,15.40
2023-04-23T06:28:35.294Z,15.40
2023-04-23T06:29:35.233Z,15.40
2023-04-23T06:30:35.220Z,15.31
2023-04-23T06:31:35.261Z,15.37
2023-04-23T06:32:35.234Z,15.36
2023-04-23T06:33:35.230Z,15.31
2023-04-23T06:34:35.192Z,15.29
2023-04-23T06:35:35.206Z,15.28
2023-04-23T06:36:35.236Z,15.29
2023-04-23T06:37:35.214Z,15.33
2023-04-23T06:38:35.186Z,15.27
2023-04-23T06:39:35.193Z,15.19
2023-04-23T06:40:35.327Z,15.27
2023-04-23T06:41:35.164Z,15.29
2023-04-23T06:42:35.179Z,15.33
2023-04-23T06:43:35.141Z,15.15
2023-04-23T06:44:35.116Z,15.29
2023-04-23T06:45:35.122Z,15.22
2023-04-23T06:46:35.153Z,15.21
2023-04-23T06:47:35.126Z,15.21
2023-04-23T06:48:35.111Z,15.31
2023-04-23T06:49:35.114Z,15.18
2023-04-23T06:50:35.098Z,15.18
2023-04-23T06:51:35.131Z,14.92
2023-04-23T06:52:35.275Z,14.85
2023-04-23T06:53:35.062Z,14.59
2023-04-23T06:54:35.043Z,14.60
2023-04-23T06:55:35.080Z,14.30
2023-04-23T06:56:35.056Z,14.00
2023-04-23T06:57:35.058Z,13.92
2023-04-23T06:58:35.036Z,13.72
2023-04-23T06:59:35.043Z,13.44
2023-04-23T07:00:35.063Z,13.16
2023-04-23T07:01:35.006Z,12.87
2023-04-23T07:02:35.066Z,12.93
2023-04-23T07:03:35.038Z,12.93
2023-04-23T07:04:35.053Z,12.86
2023-04-23T07:05:34.963Z,12.82
2023-04-23T07:06:35.012Z,12.87
2023-04-23T07:07:34.996Z,12.80
2023-04-23T07:08:34.942Z,12.73
2023-04-23T07:09:34.953Z,12.86
2023-04-23T07:10:34.950Z,12.91
2023-04-23T07:11:34.932Z,12.82
2023-04-23T07:12:35.013Z,12.83
2023-04-23T07:13:34.949Z,12.86
2023-04-23T07:14:34.917Z,12.87
2023-04-23T07:15:34.924Z,12.98
2023-04-23T07:16:34.914Z,13.03
2023-04-23T07:17:34.915Z,13.08
2023-04-23T07:18:34.898Z,13.16
2023-04-23T07:19:34.882Z,13.27
2023-04-23T07:20:34.867Z,13.37
2023-04-23T07:21:34.897Z,13.42
2023-04-23T07:22:34.852Z,13.46
2023-04-23T07:23:35.055Z,13.53
2023-04-23T07:24:34.843Z,13.50
2023-04-23T07:25:34.835Z,13.53
2023-04-23T07:26:34.806Z,13.52
2023-04-23T07:27:34.810Z,13.56
2023-04-23T07:28:34.858Z,13.75
2023-04-23T07:29:34.848Z,13.74
2023-04-23T07:30:34.813Z,13.59
2023-04-23T07:31:34.829Z,13.63
2023-04-23T07:32:34.797Z,13.75
2023-04-23T07:33:34.783Z,13.90
2023-04-23T07:34:36.228Z,13.89
2023-04-23T07:35:34.738Z,14.11
2023-04-23T07:36:34.832Z,14.15
2023-04-23T07:37:34.750Z,14.26
2023-04-23T07:38:34.734Z,14.40
2023-04-23T07:39:34.734Z,14.36
2023-04-23T07:40:34.705Z,14.36
2023-04-23T07:41:34.732Z,14.36
2023-04-23T07:42:34.686Z,14.45
2023-04-23T07:43:34.680Z,14.33
2023-04-23T07:44:34.760Z,14.30
2023-04-23T07:45:34.663Z,14.40
2023-04-23T07:46:34.753Z,14.33
2023-04-23T07:47:34.738Z,14.36
2023-04-23T07:48:34.644Z,14.37
2023-04-23T07:49:34.857Z,14.47
2023-04-23T07:50:34.656Z,14.58
2023-04-23T07:51:34.624Z,14.63
2023-04-23T07:52:34.643Z,14.55
2023-04-23T07:53:34.590Z,14.60
2023-04-23T07:54:34.611Z,14.58
2023-04-23T07:55:34.620Z,14.59
2023-04-23T07:56:34.559Z,14.59
2023-04-23T07:57:34.581Z,14.54
2023-04-23T07:58:34.576Z,14.63
2023-04-23T07:59:34.580Z,14.70
2023-04-23T08:00:34.600Z,14.70
2023-04-23T08:01:34.552Z,14.63
2023-04-23T08:02:34.651Z,14.72
2023-04-23T08:03:34.735Z,14.62
2023-04-23T08:04:34.673Z,14.54
2023-04-23T08:05:34.535Z,14.63
2023-04-23T08:06:34.745Z,14.65
2023-04-23T08:07:34.503Z,14.70
2023-04-23T08:08:34.512Z,14.84
2023-04-23T08:09:34.542Z,14.78
2023-04-23T08:10:34.506Z,14.77
2023-04-23T08:11:34.703Z,14.89
2023-04-23T08:12:34.488Z,14.86
2023-04-23T08:13:34.441Z,14.79
2023-04-23T08:14:34.439Z,14.85
2023-04-23T08:15:34.457Z,14.82
2023-04-23T08:16:37.084Z,14.91
2023-04-23T08:17:34.475Z,14.92
2023-04-23T08:18:34.436Z,14.85
2023-04-23T08:19:34.413Z,14.91
2023-04-23T08:20:34.379Z,15.00
2023-04-23T08:21:34.403Z,14.96
2023-04-23T08:22:34.389Z,14.99
2023-04-23T08:23:34.417Z,15.09
2023-04-23T08:24:34.402Z,15.00
2023-04-23T08:25:34.348Z,15.03
2023-04-23T08:26:34.363Z,15.07
2023-04-23T08:27:34.349Z,15.19
2023-04-23T08:28:34.351Z,15.25
2023-04-23T08:29:34.323Z,15.25
2023-04-23T08:30:34.304Z,15.15
2023-04-23T08:31:34.426Z,15.22
2023-04-23T08:32:34.400Z,15.42
2023-04-23T08:33:34.292Z,15.83
2023-04-23T08:34:35.799Z,16.53
2023-04-23T08:35:34.322Z,16.74
2023-04-23T08:36:34.474Z,16.96
2023-04-23T08:37:34.285Z,17.14
2023-04-23T08:38:34.296Z,17.26
2023-04-23T08:39:34.231Z,17.22
2023-04-23T08:40:34.380Z,17.36
2023-04-23T08:41:34.290Z,17.44
2023-04-23T08:42:34.254Z,17.45
2023-04-23T08:43:34.239Z,17.34
2023-04-23T08:44:34.423Z,17.16
2023-04-23T08:45:34.255Z,17.14
2023-04-23T08:46:34.240Z,17.23
2023-04-23T08:47:34.255Z,17.41
2023-04-23T08:48:34.265Z,17.45
2023-04-23T08:49:34.247Z,17.72
2023-04-23T08:50:34.252Z,17.76
2023-04-23T08:51:34.269Z,17.82
2023-04-23T08:52:34.195Z,17.82
2023-04-23T08:53:34.192Z,17.92
2023-04-23T08:54:34.167Z,17.92
2023-04-23T08:55:34.152Z,17.86
2023-04-23T08:56:34.181Z,17.82
2023-04-23T08:57:34.145Z,17.72
2023-04-23T08:58:34.167Z,17.76
2023-04-23T08:59:34.178Z,17.90
2023-04-23T09:00:34.160Z,17.79
2023-04-23T09:01:34.122Z,18.16
2023-04-23T09:02:34.415Z,18.16
2023-04-23T09:03:34.181Z,18.16
2023-04-23T09:04:34.150Z,17.98
2023-04-23T09:05:34.113Z,18.04
2023-04-23T09:06:34.096Z,18.01
2023-04-23T09:07:34.334Z,18.03
2023-04-23T09:08:34.114Z,18.04
2023-04-23T09:09:34.075Z,18.03
2023-04-23T09:10:34.136Z,17.94
2023-04-23T09:11:34.064Z,17.74
2023-04-23T09:12:34.055Z,17.78
2023-04-23T09:13:34.066Z,17.71
2023-04-23T09:14:34.056Z,17.80
2023-04-23T09:15:34.122Z,17.74
2023-04-23T09:16:34.108Z,17.70
2023-04-23T09:17:34.070Z,17.76
2023-04-23T09:18:34.058Z,17.97
2023-04-23T09:19:34.020Z,18.33
2023-04-23T09:20:34.066Z,18.44
2023-04-23T09:21:34.236Z,18.38
2023-04-23T09:22:34.019Z,18.49
2023-04-23T09:23:33.995Z,18.53
2023-04-23T09:24:34.012Z,18.53
2023-04-23T09:25:33.989Z,18.43
2023-04-23T09:26:34.009Z,18.22
2023-04-23T09:27:34.005Z,18.19
2023-04-23T09:28:33.980Z,17.98
2023-04-23T09:29:33.969Z,17.97
2023-04-23T09:30:33.960Z,18.08
2023-04-23T09:31:33.965Z,18.25
2023-04-23T09:32:33.961Z,17.85
2023-04-23T09:34:33.944Z,17.67
2023-04-23T09:35:34.156Z,17.54
2023-04-23T09:36:33.952Z,17.56
2023-04-23T09:37:33.922Z,17.48
2023-04-23T09:38:33.917Z,17.64
2023-04-23T09:39:33.916Z,17.72
2023-04-23T09:40:33.900Z,17.68
2023-04-23T09:41:33.901Z,17.46
2023-04-23T09:42:33.903Z,17.26
2023-04-23T09:43:33.914Z,17.42
2023-04-23T09:44:33.877Z,17.29
2023-04-23T09:45:33.874Z,17.39
2023-04-23T09:46:33.878Z,17.82
2023-04-23T09:47:33.954Z,18.29
2023-04-23T09:48:33.877Z,18.53
2023-04-23T09:50:33.890Z,18.73
2023-04-23T09:52:33.907Z,18.83
2023-04-23T09:53:33.872Z,18.92
2023-04-23T09:54:33.854Z,18.92
2023-04-23T09:55:33.862Z,18.86
2023-04-23T09:56:33.824Z,18.75
2023-04-23T09:57:33.871Z,18.88
2023-04-23T09:58:33.848Z,19.21
2023-04-23T09:59:46.986Z,19.36
2023-04-23T10:00:33.809Z,19.51
2023-04-23T10:01:33.826Z,19.15
2023-04-23T10:02:33.967Z,18.92
2023-04-23T10:03:33.839Z,18.99
2023-04-23T10:04:34.101Z,18.98
2023-04-23T10:05:45.394Z,18.84
2023-04-23T10:06:44.318Z,18.84
2023-04-23T10:07:33.754Z,18.83
2023-04-23T10:08:33.772Z,18.62
2023-04-23T10:09:33.762Z,18.56
2023-04-23T10:10:36.366Z,18.92
2023-04-23T10:11:33.745Z,19.18
2023-04-23T10:12:52.175Z,19.39
2023-04-23T10:13:33.755Z,19.40
2023-04-23T10:14:33.739Z,19.30
2023-04-23T10:15:33.764Z,19.30
2023-04-23T10:16:42.379Z,19.19
2023-04-23T10:17:33.740Z,19.30
2023-04-23T10:18:33.725Z,19.24
2023-04-23T10:19:33.695Z,19.19
2023-04-23T10:20:33.736Z,19.48
2023-04-23T10:21:42.906Z,19.81
2023-04-23T10:22:33.709Z,19.74
2023-04-23T10:23:33.681Z,20.00
2023-04-23T10:24:33.709Z,19.86
2023-04-23T10:25:33.688Z,19.88
2023-04-23T10:26:33.703Z,19.66
2023-04-23T10:27:51.170Z,19.59
2023-04-23T10:28:33.662Z,19.19
2023-04-23T10:29:33.649Z,19.07
2023-04-23T10:30:33.667Z,19.11
2023-04-23T10:31:33.714Z,19.29
2023-04-23T10:32:33.683Z,19.69
2023-04-23T10:33:42.674Z,20.02
2023-04-23T10:34:33.684Z,20.41
2023-04-23T10:35:33.632Z,20.80
2023-04-23T10:36:33.621Z,20.88
2023-04-23T10:37:33.624Z,20.78
2023-04-23T10:38:33.625Z,20.87
2023-04-23T10:39:33.598Z,20.82
2023-04-23T10:40:33.619Z,20.75
2023-04-23T10:41:33.612Z,20.50
2023-04-23T10:42:33.633Z,20.34
2023-04-23T10:43:33.781Z,20.34
2023-04-23T10:44:56.735Z,20.19
2023-04-23T10:45:33.601Z,20.14
2023-04-23T10:46:34.095Z,20.14
2023-04-23T10:47:33.669Z,20.14
2023-04-23T10:48:33.614Z,20.00
2023-04-23T10:49:33.575Z,19.71
2023-04-23T10:50:34.149Z,19.62
2023-04-23T10:52:14.897Z,19.69
2023-04-23T10:52:33.558Z,19.51
2023-04-23T10:53:33.578Z,19.51
2023-04-23T10:54:33.561Z,19.18
2023-04-23T10:55:33.568Z,18.95
2023-04-23T10:56:33.577Z,18.68
2023-04-23T10:57:33.532Z,18.33
2023-04-23T10:58:33.524Z,18.10
2023-04-23T10:59:33.550Z,17.98
2023-04-23T11:00:33.544Z,18.04
2023-04-23T11:01:33.561Z,18.16
2023-04-23T11:02:33.757Z,18.25
2023-04-23T11:03:33.726Z,18.45
2023-04-23T11:04:33.643Z,18.52
2023-04-23T11:05:33.522Z,18.53
2023-04-23T11:06:33.493Z,18.60
2023-04-23T11:07:33.534Z,18.63
2023-04-23T11:08:33.480Z,18.45
2023-04-23T11:09:33.487Z,18.65
2023-04-23T11:10:33.493Z,18.63
2023-04-23T11:11:33.502Z,18.78
2023-04-23T11:12:33.489Z,18.86
2023-04-23T11:13:33.483Z,18.90
2023-04-23T11:14:33.454Z,19.07
2023-04-23T11:15:33.465Z,19.09
2023-04-23T11:16:33.547Z,19.21
2023-04-23T11:17:33.476Z,19.22
2023-04-23T11:18:33.425Z,19.22
2023-04-23T11:19:33.420Z,19.22
2023-04-23T11:20:33.419Z,19.19
2023-04-23T11:21:33.399Z,19.19
2023-04-23T11:22:33.419Z,19.11
2023-04-23T11:23:33.405Z,19.21
2023-04-23T11:24:33.593Z,18.99
2023-04-23T11:25:33.399Z,18.96
2023-04-23T11:26:33.388Z,18.84
2023-04-23T11:27:33.587Z,18.96
2023-04-23T11:28:33.391Z,18.89
2023-04-23T11:29:33.360Z,19.18
2023-04-23T11:30:33.382Z,19.21
2023-04-23T11:31:33.389Z,19.34
2023-04-23T11:32:33.463Z,19.36
2023-04-23T11:33:33.359Z,19.58
2023-04-23T11:34:33.364Z,19.67
2023-04-23T11:35:33.334Z,19.91
2023-04-23T11:36:33.532Z,20.22
2023-04-23T11:37:33.322Z,20.39
2023-04-23T11:38:33.351Z,20.62
2023-04-23T11:39:33.503Z,20.81
2023-04-23T11:40:33.499Z,20.60
2023-04-23T11:41:33.508Z,20.56
2023-04-23T11:42:33.324Z,20.59
2023-04-23T11:43:33.279Z,20.72
2023-04-23T11:44:33.329Z,20.84
2023-04-23T11:45:33.328Z,20.93
2023-04-23T11:46:33.420Z,20.88
2023-04-23T11:47:33.327Z,20.80
2023-04-23T11:48:33.480Z,20.77
2023-04-23T11:49:33.312Z,20.87
2023-04-23T11:50:33.772Z,20.92
2023-04-23T11:51:33.301Z,20.93
2023-04-23T11:52:33.260Z,20.80
2023-04-23T11:53:33.504Z,20.70
2023-04-23T11:54:33.231Z,20.84
2023-04-23T11:55:33.249Z,20.93
2023-04-23T11:56:33.439Z,21.22
2023-04-23T11:57:33.223Z,21.32
2023-04-23T11:58:33.222Z,21.25
2023-04-23T11:59:33.280Z,21.22
2023-04-23T12:00:33.238Z,21.25
2023-04-23T12:01:33.235Z,21.32
2023-04-23T12:02:33.296Z,21.22
2023-04-23T12:03:33.325Z,21.35
2023-04-23T12:04:33.262Z,21.54
2023-04-23T12:05:33.281Z,21.60
2023-04-23T12:06:33.243Z,21.79
2023-04-23T12:07:33.187Z,21.99
2023-04-23T12:08:33.246Z,21.85
2023-04-23T12:09:33.214Z,21.80
2023-04-23T12:10:33.169Z,21.92
2023-04-23T12:11:33.150Z,21.89
2023-04-23T12:12:33.169Z,21.69
2023-04-23T12:13:33.155Z,21.57
2023-04-23T12:14:33.185Z,21.51
2023-04-23T12:15:33.158Z,21.58
2023-04-23T12:16:33.165Z,21.67
2023-04-23T12:17:33.172Z,21.91
2023-04-23T12:18:33.129Z,21.95
2023-04-23T12:19:33.134Z,21.66
2023-04-23T12:20:33.113Z,21.46
2023-04-23T12:21:33.149Z,21.45
2023-04-23T12:22:33.103Z,21.43
2023-04-23T12:23:33.102Z,20.93
2023-04-23T12:24:33.099Z,20.37
2023-04-23T12:25:33.100Z,20.56
2023-04-23T12:26:33.171Z,20.81
2023-04-23T12:27:33.089Z,20.97
2023-04-23T12:28:33.110Z,21.32
2023-04-23T12:29:33.086Z,21.54
2023-04-23T12:30:33.090Z,21.89
2023-04-23T12:31:33.148Z,21.85
2023-04-23T12:32:33.120Z,21.72
2023-04-23T12:33:33.094Z,21.93
2023-04-23T12:34:33.271Z,21.93
2023-04-23T12:35:33.061Z,21.89
2023-04-23T12:36:33.077Z,21.57
2023-04-23T12:37:33.078Z,21.29
2023-04-23T12:38:33.037Z,20.95
2023-04-23T12:39:33.065Z,20.87
2023-04-23T12:40:33.276Z,20.60
2023-04-23T12:41:33.629Z,20.25
2023-04-23T12:43:33.031Z,19.64
2023-04-23T12:44:33.024Z,19.45
2023-04-23T12:45:33.019Z,19.36
2023-04-23T12:46:33.013Z,19.36
2023-04-23T12:47:33.132Z,19.33
2023-04-23T12:48:33.043Z,19.33
2023-04-23T12:49:33.005Z,19.36
2023-04-23T12:50:32.997Z,19.30
2023-04-23T12:51:33.015Z,19.39
2023-04-23T12:52:33.008Z,19.73
2023-04-23T12:53:32.991Z,19.92
2023-04-23T12:54:33.029Z,20.34
2023-04-23T12:55:32.990Z,20.44
2023-04-23T12:56:32.993Z,20.75